createdAt,value
2022-12-14T00:01:54.374Z,-9.57
2022-12-14T00:06:56.147Z,-9.71
2022-12-14T00:11:58.808Z,-9.83
2022-12-14T00:17:00.681Z,-9.99
2022-12-14T00:22:02.432Z,-10.12
2022-12-14T00:27:04.277Z,-10.16
2022-12-14T00:32:06.450Z,-10.10
2022-12-14T00:37:11.170Z,-9.95
2022-12-14T00:42:12.910Z,-9.79
2022-12-14T00:47:14.754Z,-9.62
2022-12-14T00:52:16.515Z,-9.45
2022-12-14T00:57:18.287Z,-9.26
2022-12-14T01:02:20.187Z,-9.08
2022-12-14T01:07:22.081Z,-8.92
2022-12-14T01:12:23.881Z,-8.81
2022-12-14T01:17:25.611Z,-8.76
2022-12-14T01:22:27.461Z,-8.68
2022-12-14T01:27:29.421Z,-8.60
2022-12-14T01:32:31.255Z,-8.54
2022-12-14T01:37:33.002Z,-8.53
2022-12-14T01:42:36.546Z,-8.46
2022-12-14T01:47:43.185Z,-8.45
2022-12-14T01:52:47.861Z,-8.39
2022-12-14T01:58:15.401Z,-8.34
2022-12-14T02:03:38.228Z,-8.36
2022-12-14T02:08:43.440Z,-8.46
2022-12-14T02:13:45.260Z,-8.59
2022-12-14T02:18:50.746Z,-8.75
2022-12-14T02:24:20.078Z,-8.91
2022-12-14T02:29:43.491Z,-9.07
2022-12-14T02:35:18.804Z,-9.18
2022-12-14T02:40:32.652Z,-9.30
2022-12-14T02:46:03.446Z,-9.39
2022-12-14T02:51:49.932Z,-9.47
2022-12-14T02:56:59.689Z,-9.52
2022-12-14T03:02:03.703Z,-9.58
2022-12-14T03:07:34.208Z,-9.66
2022-12-14T03:12:40.367Z,-9.71
2022-12-14T03:17:46.551Z,-9.75
2022-12-14T03:22:59.022Z,-9.79
2022-12-14T03:28:14.443Z,-9.76
2022-12-14T03:33:20.187Z,-9.76
2022-12-14T03:38:37.939Z,-9.73
2022-12-14T03:44:17.367Z,-9.68
2022-12-14T03:49:32.824Z,-9.68
2022-12-14T03:54:53.724Z,-9.65
2022-12-14T04:00:13.087Z,-9.65
2022-12-14T04:05:30.291Z,-9.68
2022-12-14T04:10:58.818Z,-9.67
2022-12-14T04:16:25.851Z,-9.63
2022-12-14T04:21:40.101Z,-9.63
2022-12-14T04:26:54.673Z,-9.62
2022-12-14T04:32:25.845Z,-9.61
2022-12-14T04:37:29.043Z,-9.59
2022-12-14T04:42:41.616Z,-9.57
2022-12-14T04:47:51.408Z,-9.52
2022-12-14T04:53:01.782Z,-9.44
2022-12-14T04:58:24.609Z,-9.40
2022-12-14T05:03:32.244Z,-9.37
2022-12-14T05:08:52.351Z,-9.35
2022-12-14T05:13:54.021Z,-9.36
2022-12-14T05:18:55.789Z,-9.45
2022-12-14T05:23:59.856Z,-9.54
2022-12-14T05:29:01.690Z,-9.50
2022-12-14T05:34:03.899Z,-9.45
2022-12-14T05:39:06.073Z,-9.38
2022-12-14T05:44:07.865Z,-9.31
2022-12-14T05:49:09.981Z,-9.23
2022-12-14T05:54:11.859Z,-9.15
2022-12-14T05:59:15.852Z,-9.15
2022-12-14T06:04:18.850Z,-9.16
2022-12-14T06:09:20.801Z,-9.08
2022-12-14T06:14:24.499Z,-9.04
2022-12-14T06:19:26.241Z,-9.04
2022-12-14T06:24:28.083Z,-9.07
2022-12-14T06:29:29.889Z,-9.11
2022-12-14T06:34:35.353Z,-9.13
2022-12-14T06:39:40.442Z,-9.14
2022-12-14T06:44:42.254Z,-9.16
2022-12-14T06:49:44.629Z,-9.18
2022-12-14T06:54:47.113Z,-9.25
2022-12-14T06:59:48.860Z,-9.26
2022-12-14T07:04:50.627Z,-9.20
2022-12-14T07:09:52.498Z,-9.14
2022-12-14T07:14:55.313Z,-9.00
2022-12-14T07:19:57.277Z,-8.90
2022-12-14T07:24:59.138Z,-8.79
2022-12-14T07:30:01.014Z,-8.66
2022-12-14T07:35:02.844Z,-8.54
2022-12-14T07:40:05.356Z,-8.44
2022-12-14T07:45:07.506Z,-8.32
2022-12-14T07:50:09.517Z,-8.19
2022-12-14T07:55:11.431Z,-8.02
2022-12-14T08:00:13.786Z,-7.82
2022-12-14T08:05:16.376Z,-7.67
2022-12-14T08:10:18.218Z,-7.48
2022-12-14T08:15:19.985Z,-7.32
2022-12-14T08:20:21.756Z,-7.16
2022-12-14T08:25:23.563Z,-6.96
2022-12-14T08:30:25.429Z,-6.75
2022-12-14T08:35:27.259Z,-6.56
2022-12-14T08:40:29.681Z,-6.40
2022-12-14T08:45:31.785Z,-6.30
2022-12-14T08:50:33.595Z,-6.25
2022-12-14T08:55:38.795Z,-6.23
2022-12-14T09:00:40.856Z,-6.11
2022-12-14T09:05:42.668Z,-5.95
2022-12-14T09:10:50.744Z,-5.77
2022-12-14T09:16:18.095Z,-5.53
2022-12-14T09:21:20.113Z,-5.27
2022-12-14T09:26:25.260Z,-5.07
2022-12-14T09:31:27.995Z,-4.91
2022-12-14T09:36:29.967Z,-4.77
2022-12-14T09:41:34.812Z,-4.58
2022-12-14T09:46:52.580Z,-4.32
2022-12-14T09:51:57.285Z,-4.14
2022-12-14T09:57:04.752Z,-3.96
2022-12-14T10:02:40.302Z,-3.86
2022-12-14T10:07:51.537Z,-3.74
2022-12-14T10:13:13.453Z,-3.61
2022-12-14T10:19:00.606Z,-3.48
2022-12-14T10:24:06.400Z,-3.44
2022-12-14T10:29:14.500Z,-3.29
2022-12-14T10:34:24.763Z,-3.04
2022-12-14T10:39:40.118Z,-2.85
2022-12-14T10:45:23.331Z,-2.79
2022-12-14T10:50:32.622Z,-2.78
2022-12-14T10:55:40.158Z,-2.72
2022-12-14T11:00:42.160Z,-2.62
2022-12-14T11:06:03.927Z,-2.56
2022-12-14T11:11:18.644Z,-2.49
2022-12-14T11:16:36.501Z,-2.43
2022-12-14T11:21:39.200Z,-2.38
2022-12-14T11:26:42.945Z,-2.37
2022-12-14T11:31:47.874Z,-2.33
2022-12-14T11:36:50.243Z,-2.31
2022-12-14T11:42:02.075Z,-2.23
2022-12-14T11:47:13.238Z,-2.11
2022-12-14T11:52:18.336Z,-2.06
2022-12-14T11:57:30.947Z,-1.97
2022-12-14T12:02:38.336Z,-1.72
2022-12-14T12:07:56.851Z,-1.38
2022-12-14T12:13:01.480Z,-1.19
2022-12-14T12:18:17.106Z,-1.26
2022-12-14T12:23:27.569Z,-1.50
2022-12-14T12:28:35.715Z,-1.70
2022-12-14T12:33:46.672Z,-1.70
2022-12-14T12:39:24.902Z,-1.72
2022-12-14T12:45:08.201Z,-1.76
2022-12-14T12:50:32.154Z,-1.89
2022-12-14T12:56:08.544Z,-1.98
2022-12-14T13:01:42.487Z,-2.05
2022-12-14T13:06:55.760Z,-2.10
2022-12-14T13:11:58.598Z,-2.22
2022-12-14T13:17:05.371Z,-2.31
2022-12-14T13:22:15.125Z,-2.41
2022-12-14T13:27:44.434Z,-2.53
2022-12-14T13:32:55.733Z,-2.61
2022-12-14T13:38:12.871Z,-2.69
2022-12-14T13:44:08.201Z,-2.78
2022-12-14T13:49:21.852Z,-2.89
2022-12-14T13:54:30.471Z,-2.92
2022-12-14T13:59:45.924Z,-2.98
2022-12-14T14:04:47.735Z,-3.07
2022-12-14T14:09:55.915Z,-3.09
2022-12-14T14:15:07.931Z,-3.15
2022-12-14T14:20:47.040Z,-3.24
2022-12-14T14:25:48.891Z,-3.32
2022-12-14T14:30:54.690Z,-3.43
2022-12-14T14:36:25.173Z,-3.47
2022-12-14T14:41:40.709Z,-3.54
2022-12-14T14:46:48.158Z,-3.54
2022-12-14T14:51:50.264Z,-3.58
2022-12-14T14:56:53.117Z,-3.65
2022-12-14T15:02:00.904Z,-3.68
2022-12-14T15:07:07.526Z,-3.76
2022-12-14T15:12:34.834Z,-3.80
2022-12-14T15:17:36.672Z,-3.83
2022-12-14T15:22:43.394Z,-3.85
2022-12-14T15:27:48.579Z,-3.91
2022-12-14T15:33:21.104Z,-3.93
2022-12-14T15:38:27.717Z,-3.94
2022-12-14T15:43:30.709Z,-3.97
2022-12-14T15:48:35.171Z,-4.01
2022-12-14T15:53:53.523Z,-4.00
2022-12-14T15:59:01.190Z,-3.98
2022-12-14T16:04:09.778Z,-3.93
2022-12-14T16:09:19.615Z,-3.87
2022-12-14T16:14:30.252Z,-3.88
2022-12-14T16:19:57.611Z,-3.88
2022-12-14T16:25:07.897Z,-3.86
2022-12-14T16:30:21.896Z,-3.85
2022-12-14T16:35:26.404Z,-3.83
2022-12-14T16:40:32.098Z,-3.80
2022-12-14T16:45:43.298Z,-3.77
2022-12-14T16:50:57.017Z,-3.75
2022-12-14T16:56:19.498Z,-3.76
2022-12-14T17:01:25.342Z,-3.76
2022-12-14T17:06:36.688Z,-3.74
2022-12-14T17:11:40.189Z,-3.74
2022-12-14T17:16:43.079Z,-3.68
2022-12-14T17:21:45.112Z,-3.62
2022-12-14T17:26:48.071Z,-3.56
2022-12-14T17:31:52.899Z,-3.54
2022-12-14T17:36:57.090Z,-3.49
2022-12-14T17:42:00.677Z,-3.50
2022-12-14T17:47:02.714Z,-3.51
2022-12-14T17:52:07.955Z,-3.52
2022-12-14T17:57:23.117Z,-3.53
2022-12-14T18:02:32.830Z,-3.49
2022-12-14T18:07:35.007Z,-3.46
2022-12-14T18:12:36.920Z,-3.46
2022-12-14T18:17:38.948Z,-3.46
2022-12-14T18:22:41.035Z,-3.47
2022-12-14T18:27:43.033Z,-3.47
2022-12-14T18:32:46.132Z,-3.47
2022-12-14T18:37:51.688Z,-3.48
2022-12-14T18:42:56.508Z,-3.53
2022-12-14T18:47:59.815Z,-3.56
2022-12-14T18:53:05.031Z,-3.60
2022-12-14T18:58:09.959Z,-3.56
2022-12-14T19:03:15.457Z,-3.54
2022-12-14T19:08:18.104Z,-3.56
2022-12-14T19:13:26.148Z,-3.56
2022-12-14T19:18:30.881Z,-3.55
2022-12-14T19:23:33.269Z,-3.54
2022-12-14T19:28:35.745Z,-3.54
2022-12-14T19:33:40.966Z,-3.55
2022-12-14T19:38:42.980Z,-3.58
2022-12-14T19:43:47.634Z,-3.56
2022-12-14T19:48:51.467Z,-3.55
2022-12-14T19:53:55.210Z,-3.58
2022-12-14T19:59:03.691Z,-3.60
2022-12-14T20:04:06.356Z,-3.56
2022-12-14T20:09:08.856Z,-3.51
2022-12-14T20:14:12.573Z,-3.51
2022-12-14T20:19:16.485Z,-3.51
2022-12-14T20:24:21.301Z,-3.52
2022-12-14T20:29:24.765Z,-3.54
2022-12-14T20:34:29.137Z,-3.53
2022-12-14T20:39:31.196Z,-3.54
2022-12-14T20:44:33.101Z,-3.49
2022-12-14T20:49:35.023Z,-3.40
2022-12-14T20:54:36.967Z,-3.30
2022-12-14T20:59:38.813Z,-3.32
2022-12-14T21:04:40.576Z,-3.37
2022-12-14T21:09:42.280Z,-3.36
2022-12-14T21:14:48.105Z,-3.35
2022-12-14T21:19:50.891Z,-3.37
2022-12-14T21:25:08.259Z,-3.41
2022-12-14T21:30:11.495Z,-3.37
2022-12-14T21:35:17.807Z,-3.34
2022-12-14T21:40:39.589Z,-3.31
2022-12-14T21:45:41.528Z,-3.29
2022-12-14T21:50:45.260Z,-3.26
2022-12-14T21:55:51.669Z,-3.23
2022-12-14T22:00:53.470Z,-3.19
2022-12-14T22:05:55.258Z,-3.18
2022-12-14T22:11:02.496Z,-3.16
2022-12-14T22:16:07.623Z,-3.18
2022-12-14T22:21:10.044Z,-3.15
2022-12-14T22:26:11.906Z,-3.16
2022-12-14T22:31:13.956Z,-3.17
2022-12-14T22:36:16.244Z,-3.21
2022-12-14T22:41:20.194Z,-3.21
2022-12-14T22:46:23.543Z,-3.18
2022-12-14T22:51:26.122Z,-3.24
2022-12-14T22:56:34.203Z,-3.33
2022-12-14T23:01:37.589Z,-3.37
2022-12-14T23:06:40.969Z,-3.35
2022-12-14T23:12:01.490Z,-3.34
2022-12-14T23:17:22.502Z,-3.34
2022-12-14T23:22:42.967Z,-3.29
2022-12-14T23:28:03.527Z,-3.33
2022-12-14T23:33:23.973Z,-3.37
2022-12-14T23:38:44.623Z,-3.43
2022-12-14T23:44:05.232Z,-3.47
2022-12-14T23:49:25.981Z,-3.51
2022-12-14T23:54:46.456Z,-3.55
